Thalassa — FNFP — position and weather

sailwx.info

Track history (hours):
 
Tides and Currents Weather Stations Pressure Air Temp Water Temp Dewpoint Dewpoint Depression Visibility Wind Speed Wind Dir Waves Ship Positions

Oceanographic research ship Thalassa (France & Spain)

Detailed information on ship capabilities available from University of Delaware's Ocean Information Center.

Last reported at 2019-Oct-23 07:10 UTC. Time now 2019-Oct-23 20:55 UTC.
Position N 46°56' W 004°45'.

Length 74 m; beam 15 m.

Type: Other ship. MMSI: 227297000.

Date/timePositionNaut miles runAvg speedWind from/ knotsBaromVisibWave heightAir tempDewpointWater temp
2019-Oct-23 07:10N 46°56' W 004°45'0 1.8
2019-Oct-23 06:56N 46°56' W 004°44'1 2.3
2019-Oct-23 06:30N 46°56' W 004°45'1 1.3
2019-Oct-23 06:00N 46°55' W 004°46'1 1.6
2019-Oct-23 05:30N 46°55' W 004°47'1 0.9
2019-Oct-23 04:26N 46°54' W 004°47'1 0.8
2019-Oct-23 03:39N 46°54' W 004°47'0 0.9
2019-Oct-23 03:17N 46°54' W 004°46'1 2.1
2019-Oct-23 02:58N 46°53' W 004°47'5 5.5
2019-Oct-23 01:59N 46°48' W 004°50'2 4.6
2019-Oct-23 01:30N 46°47' W 004°53'3 5.1
2019-Oct-23 01:00N 46°46' W 004°57'3 3.2
2019-Oct-23 00:09N 46°44' W 004°59'2 1.4
2019-Oct-22 22:38N 46°46' W 004°59'1 5.6
2019-Oct-22 22:23N 46°47' W 004°59'1 2.8
2019-Oct-22 22:00N 46°48' W 004°59'510.3
2019-Oct-22 21:30N 46°53' W 004°58'610.5
2019-Oct-22 20:55N 46°59' W 004°56'510.3
2019-Oct-22 20:27N 47°04' W 004°56'2510.3
2019-Oct-22 18:04N 47°28' W 004°50'110.5
2019-Oct-22 18:00N 47°29' W 004°50'510.2
2019-Oct-22 17:30N 47°34' W 004°49'510.2
2019-Oct-22 17:00N 47°39' W 004°47'510.1
2019-Oct-22 16:30N 47°44' W 004°46'5 9.9
2019-Oct-22 16:00N 47°49' W 004°45'1 2.3
2019-Oct-22 15:30N 47°50' W 004°45'0 1.0
2019-Oct-22 15:00N 47°50' W 004°45'0 1.0
2019-Oct-22 14:30N 47°49' W 004°46'1 1.6
2019-Oct-22 14:00N 47°48' W 004°46'2 3.4
2019-Oct-22 13:30N 47°49' W 004°44'0 0.1
2019-Oct-22 13:00N 47°49' W 004°44'0 0.2
2019-Oct-22 12:30N 47°49' W 004°44'0 0.9
2019-Oct-22 12:00N 47°49' W 004°44'2 3.1
2019-Oct-22 11:30N 47°49' W 004°46'2 3.8
2019-Oct-22 11:01N 47°50' W 004°49'3 5.5
2019-Oct-22 10:30N 47°53' W 004°48'3 6.9
2019-Oct-22 10:00N 47°56' W 004°48'4 7.2
2019-Oct-22 09:30N 47°60' W 004°47'5 9.9
2019-Oct-22 09:00N 48°05' W 004°46'510.3
2019-Oct-22 08:30N 48°10' W 004°47'510.2
2019-Oct-22 08:00N 48°15' W 004°49'5 9.2
2019-Oct-22 07:30N 48°17' W 004°43'510.2
2019-Oct-22 07:00N 48°19' W 004°36'4 8.2
2019-Oct-22 06:30N 48°21' W 004°31'2 4.2
2019-Oct-22 06:00N 48°23' W 004°29'0 0.0
2019-Oct-22 05:29N 48°23' W 004°29'0 0.0
2019-Oct-22 04:59N 48°23' W 004°29'0 0.0
2019-Oct-22 04:29N 48°23' W 004°29'0 0.0
2019-Oct-22 03:59N 48°23' W 004°29'0 0.0
2019-Oct-22 03:29N 48°23' W 004°29'0 0.0
2019-Oct-22 02:59N 48°23' W 004°29'0 0.0
2019-Oct-22 02:29N 48°23' W 004°29'0 0.0
2019-Oct-22 01:59N 48°23' W 004°29'0 0.0
2019-Oct-22 01:29N 48°23' W 004°29'0 0.0
2019-Oct-22 00:59N 48°23' W 004°29'0 0.0
2019-Oct-22 00:29N 48°23' W 004°29'0 0.0
2019-Oct-21 23:59N 48°23' W 004°29'0 0.0
2019-Oct-21 23:29N 48°23' W 004°29'0 0.0
2019-Oct-21 22:59N 48°23' W 004°29'0 0.0
2019-Oct-21 22:29N 48°23' W 004°29'0 0.0
2019-Oct-21 21:59N 48°23' W 004°29'0 0.0
2019-Oct-21 21:29N 48°23' W 004°29'0 0.0
2019-Oct-21 20:59N 48°23' W 004°29'0 0.0
2019-Oct-21 20:29N 48°23' W 004°29'0 0.0
2019-Oct-21 19:59N 48°23' W 004°29'0 0.0
2019-Oct-21 19:29N 48°23' W 004°29'0 0.0
2019-Oct-21 18:59N 48°23' W 004°29'0 0.0
2019-Oct-21 18:29N 48°23' W 004°29'0 0.0
2019-Oct-21 17:59N 48°23' W 004°29'0 0.0
2019-Oct-21 17:29N 48°23' W 004°29'0 0.0
2019-Oct-21 16:59N 48°23' W 004°29'0 0.0
2019-Oct-21 16:29N 48°23' W 004°29'0 0.0
2019-Oct-21 15:59N 48°23' W 004°29'0 0.0
2019-Oct-21 15:29N 48°23' W 004°29'0 0.0
2019-Oct-21 14:59N 48°23' W 004°29'0 0.0
2019-Oct-21 14:29N 48°23' W 004°29'0 0.0
2019-Oct-21 13:59N 48°23' W 004°29'0 0.0
2019-Oct-21 13:29N 48°23' W 004°29'0 0.0
2019-Oct-21 12:59N 48°23' W 004°29'0 0.0
2019-Oct-21 12:29N 48°23' W 004°29'0 0.0
2019-Oct-21 11:59N 48°23' W 004°29'0 0.0
2019-Oct-21 11:29N 48°23' W 004°29'0 0.0
2019-Oct-21 10:59N 48°23' W 004°29'0 0.0
2019-Oct-21 10:29N 48°23' W 004°29'0 0.0
2019-Oct-21 09:59N 48°23' W 004°29'0 0.0
2019-Oct-21 09:29N 48°23' W 004°29'0 0.0
2019-Oct-21 08:59N 48°23' W 004°29'0 0.0
2019-Oct-21 08:29N 48°23' W 004°29'0 0.0
2019-Oct-21 07:59N 48°23' W 004°29'0 0.0
2019-Oct-21 07:29N 48°23' W 004°29'0 0.0
2019-Oct-21 06:59N 48°23' W 004°29'0 0.0
2019-Oct-21 06:29N 48°23' W 004°29'0 0.0
2019-Oct-21 05:59N 48°23' W 004°29'0 0.0
2019-Oct-21 05:29N 48°23' W 004°29'0 0.0
2019-Oct-21 04:59N 48°23' W 004°29'0 0.0
2019-Oct-21 04:29N 48°23' W 004°29'0 0.0
2019-Oct-21 03:59N 48°23' W 004°29'0 0.0
2019-Oct-21 03:29N 48°23' W 004°29'0 0.0
2019-Oct-21 02:59N 48°23' W 004°29'0 0.0
2019-Oct-21 02:29N 48°23' W 004°29'0 0.0
2019-Oct-21 01:59N 48°23' W 004°29'0 0.0
2019-Oct-21 01:29N 48°23' W 004°29'0 0.0
2019-Oct-21 00:59N 48°23' W 004°29'0 0.0
2019-Oct-21 00:29N 48°23' W 004°29'0 0.0
2019-Oct-20 23:59N 48°23' W 004°29'0 0.0
2019-Oct-20 23:29N 48°23' W 004°29'0 0.0
2019-Oct-20 22:59N 48°23' W 004°29'0 0.0
2019-Oct-20 22:29N 48°23' W 004°29'0 0.0
2019-Oct-20 21:59N 48°23' W 004°29'0 0.0
2019-Oct-20 21:29N 48°23' W 004°29'0 0.0
2019-Oct-20 20:59N 48°23' W 004°29'0 0.0
2019-Oct-20 20:29N 48°23' W 004°29'0 0.0
2019-Oct-20 19:59N 48°23' W 004°29'0 0.0
2019-Oct-20 19:29N 48°23' W 004°29'0 0.0
2019-Oct-20 18:59N 48°23' W 004°29'0 0.0
2019-Oct-20 18:29N 48°23' W 004°29'0 0.0
2019-Oct-20 17:59N 48°23' W 004°29'0 0.0
2019-Oct-20 17:29N 48°23' W 004°29'0 0.0
2019-Oct-20 16:59N 48°23' W 004°29'0 0.0
2019-Oct-20 16:29N 48°23' W 004°29'0 0.0
2019-Oct-20 15:59N 48°23' W 004°29'0 0.0
2019-Oct-20 15:29N 48°23' W 004°29'0 0.0
2019-Oct-20 14:59N 48°23' W 004°29'0 0.0
2019-Oct-20 14:29N 48°23' W 004°29'0 0.0
2019-Oct-20 13:59N 48°23' W 004°29'0 0.0
2019-Oct-20 13:29N 48°23' W 004°29'0 0.0
2019-Oct-20 12:59N 48°23' W 004°29'0 0.0
2019-Oct-20 12:29N 48°23' W 004°29'0 0.0
2019-Oct-20 11:59N 48°23' W 004°29'0 0.0
2019-Oct-20 11:29N 48°23' W 004°29'0 0.0
2019-Oct-20 10:59N 48°23' W 004°29'0 0.0
2019-Oct-20 10:29N 48°23' W 004°29'0 0.0
2019-Oct-20 09:59N 48°23' W 004°29'0 0.0
2019-Oct-20 09:29N 48°23' W 004°29'0 0.0
2019-Oct-20 08:59N 48°23' W 004°29'0 0.0
2019-Oct-20 08:29N 48°23' W 004°29'0 0.0
2019-Oct-20 07:59N 48°23' W 004°29'0 0.0
2019-Oct-20 07:29N 48°23' W 004°29'0 0.0
2019-Oct-20 07:00N 48°23' W 004°29'0 0.0
2019-Oct-20 06:30N 48°23' W 004°29'0 0.0
2019-Oct-20 06:00N 48°23' W 004°29'0 0.0
2019-Oct-20 05:30N 48°23' W 004°29'1 2.7
2019-Oct-20 05:00N 48°22' W 004°30'3 5.8
2019-Oct-20 04:30N 48°21' W 004°34'4 8.7
2019-Oct-20 04:00N 48°19' W 004°40'5 9.6
2019-Oct-20 03:30N 48°19' W 004°47'4 8.3
2019-Oct-20 03:01N 48°23' W 004°48'4 8.9
2019-Oct-20 02:30N 48°27' W 004°50'4 8.0
2019-Oct-20 02:00N 48°31' W 004°50'4 8.4
2019-Oct-20 01:30N 48°35' W 004°48'4 8.9
2019-Oct-20 01:00N 48°39' W 004°45'5 9.2
2019-Oct-20 00:30N 48°42' W 004°40'5 9.2
2019-Oct-20 00:00N 48°46' W 004°35'5 9.7
2019-Oct-19 23:30N 48°49' W 004°30'5 9.8
2019-Oct-19 23:00N 48°53' W 004°24'7 9.7
2019-Oct-19 22:17N 48°58' W 004°17'5 9.1
2019-Oct-19 21:44N 49°01' W 004°11'3 6.2
2019-Oct-19 21:14N 49°03' W 004°08'24 3.7
2019-Oct-19 14:40N 49°22' W 003°43'6 2.8
2019-Oct-19 12:24N 49°26' W 003°36'4 9.2
2019-Oct-19 12:00N 49°29' W 003°32'510.4
2019-Oct-19 11:30N 49°33' W 003°27'510.0
2019-Oct-19 11:00N 49°36' W 003°21'5 9.7
2019-Oct-19 10:30N 49°40' W 003°17'5 9.0
2019-Oct-19 10:00N 49°44' W 003°13'4 8.5
2019-Oct-19 09:30N 49°47' W 003°08'4 8.5
2019-Oct-19 09:00N 49°50' W 003°04'4 8.4
2019-Oct-19 08:30N 49°53' W 002°60'4 8.5
2019-Oct-19 08:00N 49°56' W 002°55'4 7.9
2019-Oct-19 07:30N 49°58' W 002°50'4 8.8
2019-Oct-19 07:00N 49°59' W 002°43'5 9.0
2019-Oct-19 06:30N 50°01' W 002°37'2610.3
2019-Oct-19 04:00N 50°08' W 001°58'58 6.2
2019-Oct-18 18:39N 50°24' W 000°31'1 8.4
2019-Oct-18 18:29N 50°24' W 000°29'4 8.4
2019-Oct-18 17:58N 50°25' W 000°22'4 8.4
2019-Oct-18 17:30N 50°26' W 000°16'6 8.6
2019-Oct-18 16:46N 50°28' W 000°07'2 7.7
2019-Oct-18 16:28N 50°29' W 000°03'11 7.4
2019-Oct-18 14:56N 50°31' E 000°14'3 7.0
2019-Oct-18 14:28N 50°32' E 000°19'3 6.3
2019-Oct-18 14:00N 50°33' E 000°23'3 5.6
2019-Oct-18 13:30N 50°34' E 000°27'3 5.1
2019-Oct-18 13:00N 50°35' E 000°31'2 4.7
2019-Oct-18 12:30N 50°35' E 000°35'3 4.6
2019-Oct-18 11:57N 50°36' E 000°39'2 4.8
2019-Oct-18 11:30N 50°37' E 000°42'2 4.9
2019-Oct-18 11:00N 50°38' E 000°45'2 4.5
2019-Oct-18 10:30N 50°39' E 000°49'3 5.7
2019-Oct-18 10:00N 50°40' E 000°53'3 6.5
2019-Oct-18 09:30N 50°41' E 000°57'4 7.5
2019-Oct-18 09:00N 50°42' E 001°03'4 7.6
2019-Oct-18 08:25N 50°44' E 001°10'16 0.6
2019-Oct-17 03:58N 50°43' E 001°34'0 0.0
2019-Oct-17 01:55N 50°43' E 001°34'0 0.0
2019-Oct-17 01:28N 50°43' E 001°34'0 0.0
2019-Oct-17 00:58N 50°43' E 001°34'0 0.0
2019-Oct-17 00:28N 50°43' E 001°34'0 0.0
2019-Oct-16 23:49N 50°43' E 001°34'0 0.0
2019-Oct-16 23:16N 50°43' E 001°34'0 0.0
2019-Oct-16 22:49N 50°43' E 001°34'0 0.0
2019-Oct-16 14:48N 50°44' E 001°35'3 5.8
2019-Oct-16 14:21N 50°45' E 001°31'1 0.8
2019-Oct-16 13:32N 50°45' E 001°30'0 3.4
2019-Oct-16 13:30N 50°45' E 001°30'2 4.4
2019-Oct-16 12:58N 50°46' E 001°26'510.0
2019-Oct-16 12:29N 50°47' E 001°19'1 3.0
2019-Oct-16 12:00N 50°47' E 001°17'2 4.4
2019-Oct-16 11:29N 50°49' E 001°18'2 4.4
2019-Oct-16 10:59N 50°51' E 001°20'1 2.8
2019-Oct-16 10:30N 50°52' E 001°21'0 0.2
2019-Oct-16 09:56N 50°52' E 001°21'2 3.6
2019-Oct-16 09:25N 50°50' E 001°20'2 3.8
2019-Oct-16 09:00N 50°52' E 001°21'5 9.6
2019-Oct-16 08:30N 50°56' E 001°23'2 3.4
2019-Oct-16 08:00N 50°58' E 001°24'4 8.4
2019-Oct-16 07:30N 50°58' E 001°31'510.3
2019-Oct-16 07:00N 50°56' E 001°39'1 1.6
2019-Oct-16 06:30N 50°56' E 001°38'2 3.7
2019-Oct-16 06:01N 50°54' E 001°36'0 0.4
2019-Oct-16 05:31N 50°55' E 001°36'0 0.8
2019-Oct-16 05:01N 50°55' E 001°36'0 0.4
2019-Oct-16 04:31N 50°55' E 001°37'0 0.2
2019-Oct-16 04:00N 50°55' E 001°37'0 0.8
2019-Oct-16 03:30N 50°54' E 001°36'3 5.2
2019-Oct-16 03:00N 50°52' E 001°34'3 6.2
2019-Oct-16 02:30N 50°50' E 001°31'3 5.5
2019-Oct-16 01:54N 50°47' E 001°28'3 8.3
2019-Oct-16 01:30N 50°47' E 001°23'7 8.5
2019-Oct-16 00:37N 50°45' E 001°11'1 6.4
2019-Oct-16 00:30N 50°45' E 001°10'3 6.4
2019-Oct-16 00:00N 50°44' E 001°05'3 6.6
2019-Oct-15 23:30N 50°43' E 001°00'3 6.6
2019-Oct-15 23:00N 50°42' E 000°55'3 6.0
2019-Oct-15 22:30N 50°44' E 000°52'4 7.8
2019-Oct-15 22:01N 50°47' E 000°49'2 5.0
2019-Oct-15 21:30N 50°49' E 000°46'0 0.2
2019-Oct-15 21:01N 50°49' E 000°46'1 1.1
2019-Oct-15 20:31N 50°49' E 000°47'2 3.3
2019-Oct-15 20:00N 50°48' E 000°45'1 3.0
2019-Oct-15 19:30N 50°49' E 000°47'0 0.4
2019-Oct-15 19:01N 50°49' E 000°47'1 2.3
2019-Oct-15 18:30N 50°48' E 000°45'2 4.1
2019-Oct-15 18:00N 50°50' E 000°48'0 0.9
2019-Oct-15 17:30N 50°50' E 000°48'1 1.8
2019-Oct-15 17:00N 50°50' E 000°49'2 3.5
2019-Oct-15 16:30N 50°51' E 000°52'2 3.1
2019-Oct-15 16:01N 50°52' E 000°54'4 7.0
2019-Oct-15 15:31N 50°54' E 000°59'4 8.8
2019-Oct-15 15:01N 50°57' E 001°03'3 6.8
2019-Oct-15 14:31N 50°60' E 001°06'0 0.9
2019-Oct-15 14:01N 50°60' E 001°06'2 3.4
2019-Oct-15 13:30N 51°01' E 001°07'2 3.9
2019-Oct-15 13:01N 50°59' E 001°06'4 8.0
2019-Oct-15 12:30N 50°56' E 001°02'4 8.9
2019-Oct-15 12:01N 50°53' E 000°58'4 8.2
2019-Oct-15 11:30N 50°49' E 000°54'3 5.6
2019-Oct-15 11:00N 50°47' E 000°51'2 3.2
2019-Oct-15 10:31N 50°48' E 000°53'1 1.9
2019-Oct-15 10:00N 50°48' E 000°52'1 2.7
2019-Oct-15 09:30N 50°49' E 000°50'2 3.3
2019-Oct-15 09:00N 50°50' E 000°48'2 3.5
2019-Oct-15 08:31N 50°49' E 000°46'0 0.3
2019-Oct-15 08:01N 50°49' E 000°46'4 7.3
2019-Oct-15 07:30N 50°48' E 000°41'3 6.8
2019-Oct-15 07:00N 50°48' E 000°35'1 1.5
2019-Oct-15 06:30N 50°48' E 000°34'2 4.6
2019-Oct-15 06:00N 50°47' E 000°31'0 0.6
2019-Oct-15 05:28N 50°47' E 000°31'0 0.7
2019-Oct-15 05:00N 50°48' E 000°31'0 0.7
2019-Oct-15 04:29N 50°47' E 000°32'0 0.2
2019-Oct-15 04:00N 50°47' E 000°32'3 7.0
2019-Oct-15 03:30N 50°47' E 000°37'510.0
2019-Oct-15 03:00N 50°46' E 000°45'5 9.7
2019-Oct-15 02:30N 50°44' E 000°52'5 9.8
2019-Oct-15 01:59N 50°41' E 000°58'5 8.4
2019-Oct-15 01:20N 50°42' E 001°07'17 4.7
2019-Oct-14 21:45N 50°36' E 001°31'1 0.8
2019-Oct-14 20:08N 50°35' E 001°31'2 3.6
2019-Oct-14 19:32N 50°37' E 001°32'0 0.8
2019-Oct-14 19:28N 50°37' E 001°32'4 3.9
2019-Oct-14 18:31N 50°40' E 001°30'4 2.4
2019-Oct-14 16:48N 50°37' E 001°28'1 2.7
2019-Oct-14 16:26N 50°36' E 001°27'1 3.2
2019-Oct-14 16:00N 50°35' E 001°26'910.2
2019-Oct-14 15:05N 50°44' E 001°30'1 9.6
2019-Oct-14 15:00N 50°44' E 001°31'2 4.1
2019-Oct-14 14:30N 50°46' E 001°33'2 3.5
2019-Oct-14 14:00N 50°47' E 001°34'0 0.2
2019-Oct-14 13:29N 50°47' E 001°34'611.9
2019-Oct-14 12:59N 50°42' E 001°33'14 2.3
2019-Oct-14 06:57N 50°28' E 001°26'1 2.1
2019-Oct-14 06:29N 50°28' E 001°26'1 1.1
2019-Oct-14 05:59N 50°27' E 001°26'0 0.9
2019-Oct-14 05:30N 50°27' E 001°26'1 0.8
2019-Oct-14 04:43N 50°28' E 001°26'0 1.1
2019-Oct-14 04:28N 50°28' E 001°26'0 0.9
2019-Oct-14 03:58N 50°29' E 001°26'0 0.5
2019-Oct-14 03:30N 50°29' E 001°26'0 0.3
2019-Oct-14 03:00N 50°29' E 001°27'0 0.1
2019-Oct-14 02:30N 50°29' E 001°27'0 0.3
2019-Oct-14 01:40N 50°29' E 001°27'0 0.4
2019-Oct-14 01:29N 50°29' E 001°26'0 0.7
2019-Oct-14 00:59N 50°28' E 001°26'1 1.0
2019-Oct-14 00:27N 50°28' E 001°26'1 1.2
2019-Oct-13 23:59N 50°28' E 001°25'1 1.5
2019-Oct-13 23:28N 50°27' E 001°24'2 3.4
2019-Oct-13 22:59N 50°26' E 001°22'1 1.5
2019-Oct-13 22:18N 50°25' E 001°21'0 0.6
2019-Oct-13 21:35N 50°26' E 001°21'1 5.9
2019-Oct-13 21:29N 50°26' E 001°22'1 2.0
2019-Oct-13 21:00N 50°25' E 001°21'0 0.4
2019-Oct-13 20:22N 50°25' E 001°21'0 0.2
2019-Oct-13 19:43N 50°25' E 001°21'1 5.7
2019-Oct-13 19:30N 50°26' E 001°22'1 2.4
2019-Oct-13 18:59N 50°25' E 001°20'2 0.7
2019-Oct-13 16:30N 50°27' E 001°23'22 2.4
2019-Oct-13 07:26N 50°05' E 001°16'  
Track history (hours):
 
Tides and Currents Weather Stations Pressure Air Temp Water Temp Dewpoint Dewpoint Depression Visibility Wind Speed Wind Dir Waves Ship Positions

Oceanographic research ship Thalassa (France & Spain)

Detailed information on ship capabilities available from University of Delaware's Ocean Information Center.

Last reported at 2019-Oct-23 07:10 UTC. Time now 2019-Oct-23 20:55 UTC.
Position N 46°56' W 004°45'.

Length 74 m; beam 15 m.

Type: Other ship. MMSI: 227297000.

Date/timePositionNaut miles runAvg speedWind from/ knotsBaromVisibWave heightAir tempDewpointWater temp
2019-Oct-23 07:10N 46°56' W 004°45'0 1.8
2019-Oct-23 06:56N 46°56' W 004°44'1 2.3
2019-Oct-23 06:30N 46°56' W 004°45'1 1.3
2019-Oct-23 06:00N 46°55' W 004°46'1 1.6
2019-Oct-23 05:30N 46°55' W 004°47'1 0.9
2019-Oct-23 04:26N 46°54' W 004°47'1 0.8
2019-Oct-23 03:39N 46°54' W 004°47'0 0.9
2019-Oct-23 03:17N 46°54' W 004°46'1 2.1
2019-Oct-23 02:58N 46°53' W 004°47'5 5.5
2019-Oct-23 01:59N 46°48' W 004°50'2 4.6
2019-Oct-23 01:30N 46°47' W 004°53'3 5.1
2019-Oct-23 01:00N 46°46' W 004°57'3 3.2
2019-Oct-23 00:09N 46°44' W 004°59'2 1.4
2019-Oct-22 22:38N 46°46' W 004°59'1 5.6
2019-Oct-22 22:23N 46°47' W 004°59'1 2.8
2019-Oct-22 22:00N 46°48' W 004°59'510.3
2019-Oct-22 21:30N 46°53' W 004°58'610.5
2019-Oct-22 20:55N 46°59' W 004°56'510.3
2019-Oct-22 20:27N 47°04' W 004°56'2510.3
2019-Oct-22 18:04N 47°28' W 004°50'110.5
2019-Oct-22 18:00N 47°29' W 004°50'510.2
2019-Oct-22 17:30N 47°34' W 004°49'510.2
2019-Oct-22 17:00N 47°39' W 004°47'510.1
2019-Oct-22 16:30N 47°44' W 004°46'5 9.9
2019-Oct-22 16:00N 47°49' W 004°45'1 2.3
2019-Oct-22 15:30N 47°50' W 004°45'0 1.0
2019-Oct-22 15:00N 47°50' W 004°45'0 1.0
2019-Oct-22 14:30N 47°49' W 004°46'1 1.6
2019-Oct-22 14:00N 47°48' W 004°46'2 3.4
2019-Oct-22 13:30N 47°49' W 004°44'0 0.1
2019-Oct-22 13:00N 47°49' W 004°44'0 0.2
2019-Oct-22 12:30N 47°49' W 004°44'0 0.9
2019-Oct-22 12:00N 47°49' W 004°44'2 3.1
2019-Oct-22 11:30N 47°49' W 004°46'2 3.8
2019-Oct-22 11:01N 47°50' W 004°49'3 5.5
2019-Oct-22 10:30N 47°53' W 004°48'3 6.9
2019-Oct-22 10:00N 47°56' W 004°48'4 7.2
2019-Oct-22 09:30N 47°60' W 004°47'5 9.9
2019-Oct-22 09:00N 48°05' W 004°46'510.3
2019-Oct-22 08:30N 48°10' W 004°47'510.2
2019-Oct-22 08:00N 48°15' W 004°49'5 9.2
2019-Oct-22 07:30N 48°17' W 004°43'510.2
2019-Oct-22 07:00N 48°19' W 004°36'4 8.2
2019-Oct-22 06:30N 48°21' W 004°31'2 4.2
2019-Oct-22 06:00N 48°23' W 004°29'0 0.0
2019-Oct-22 05:29N 48°23' W 004°29'0 0.0
2019-Oct-22 04:59N 48°23' W 004°29'0 0.0
2019-Oct-22 04:29N 48°23' W 004°29'0 0.0
2019-Oct-22 03:59N 48°23' W 004°29'0 0.0
2019-Oct-22 03:29N 48°23' W 004°29'0 0.0
2019-Oct-22 02:59N 48°23' W 004°29'0 0.0
2019-Oct-22 02:29N 48°23' W 004°29'0 0.0
2019-Oct-22 01:59N 48°23' W 004°29'0 0.0
2019-Oct-22 01:29N 48°23' W 004°29'0 0.0
2019-Oct-22 00:59N 48°23' W 004°29'0 0.0
2019-Oct-22 00:29N 48°23' W 004°29'0 0.0
2019-Oct-21 23:59N 48°23' W 004°29'0 0.0
2019-Oct-21 23:29N 48°23' W 004°29'0 0.0
2019-Oct-21 22:59N 48°23' W 004°29'0 0.0
2019-Oct-21 22:29N 48°23' W 004°29'0 0.0
2019-Oct-21 21:59N 48°23' W 004°29'0 0.0
2019-Oct-21 21:29N 48°23' W 004°29'0 0.0
2019-Oct-21 20:59N 48°23' W 004°29'0 0.0
2019-Oct-21 20:29N 48°23' W 004°29'0 0.0
2019-Oct-21 19:59N 48°23' W 004°29'0 0.0
2019-Oct-21 19:29N 48°23' W 004°29'0 0.0
2019-Oct-21 18:59N 48°23' W 004°29'0 0.0
2019-Oct-21 18:29N 48°23' W 004°29'0 0.0
2019-Oct-21 17:59N 48°23' W 004°29'0 0.0
2019-Oct-21 17:29N 48°23' W 004°29'0 0.0
2019-Oct-21 16:59N 48°23' W 004°29'0 0.0
2019-Oct-21 16:29N 48°23' W 004°29'0 0.0
2019-Oct-21 15:59N 48°23' W 004°29'0 0.0
2019-Oct-21 15:29N 48°23' W 004°29'0 0.0
2019-Oct-21 14:59N 48°23' W 004°29'0 0.0
2019-Oct-21 14:29N 48°23' W 004°29'0 0.0
2019-Oct-21 13:59N 48°23' W 004°29'0 0.0
2019-Oct-21 13:29N 48°23' W 004°29'0 0.0
2019-Oct-21 12:59N 48°23' W 004°29'0 0.0
2019-Oct-21 12:29N 48°23' W 004°29'0 0.0
2019-Oct-21 11:59N 48°23' W 004°29'0 0.0
2019-Oct-21 11:29N 48°23' W 004°29'0 0.0
2019-Oct-21 10:59N 48°23' W 004°29'0 0.0
2019-Oct-21 10:29N 48°23' W 004°29'0 0.0
2019-Oct-21 09:59N 48°23' W 004°29'0 0.0
2019-Oct-21 09:29N 48°23' W 004°29'0 0.0
2019-Oct-21 08:59N 48°23' W 004°29'0 0.0
2019-Oct-21 08:29N 48°23' W 004°29'0 0.0
2019-Oct-21 07:59N 48°23' W 004°29'0 0.0
2019-Oct-21 07:29N 48°23' W 004°29'0 0.0
2019-Oct-21 06:59N 48°23' W 004°29'0 0.0
2019-Oct-21 06:29N 48°23' W 004°29'0 0.0
2019-Oct-21 05:59N 48°23' W 004°29'0 0.0
2019-Oct-21 05:29N 48°23' W 004°29'0 0.0
2019-Oct-21 04:59N 48°23' W 004°29'0 0.0
2019-Oct-21 04:29N 48°23' W 004°29'0 0.0
2019-Oct-21 03:59N 48°23' W 004°29'0 0.0
2019-Oct-21 03:29N 48°23' W 004°29'0 0.0
2019-Oct-21 02:59N 48°23' W 004°29'0 0.0
2019-Oct-21 02:29N 48°23' W 004°29'0 0.0
2019-Oct-21 01:59N 48°23' W 004°29'0 0.0
2019-Oct-21 01:29N 48°23' W 004°29'0 0.0
2019-Oct-21 00:59N 48°23' W 004°29'0 0.0
2019-Oct-21 00:29N 48°23' W 004°29'0 0.0
2019-Oct-20 23:59N 48°23' W 004°29'0 0.0
2019-Oct-20 23:29N 48°23' W 004°29'0 0.0
2019-Oct-20 22:59N 48°23' W 004°29'0 0.0
2019-Oct-20 22:29N 48°23' W 004°29'0 0.0
2019-Oct-20 21:59N 48°23' W 004°29'0 0.0
2019-Oct-20 21:29N 48°23' W 004°29'0 0.0
2019-Oct-20 20:59N 48°23' W 004°29'0 0.0
2019-Oct-20 20:29N 48°23' W 004°29'0 0.0
2019-Oct-20 19:59N 48°23' W 004°29'0 0.0
2019-Oct-20 19:29N 48°23' W 004°29'0 0.0
2019-Oct-20 18:59N 48°23' W 004°29'0 0.0
2019-Oct-20 18:29N 48°23' W 004°29'0 0.0
2019-Oct-20 17:59N 48°23' W 004°29'0 0.0
2019-Oct-20 17:29N 48°23' W 004°29'0 0.0
2019-Oct-20 16:59N 48°23' W 004°29'0 0.0
2019-Oct-20 16:29N 48°23' W 004°29'0 0.0
2019-Oct-20 15:59N 48°23' W 004°29'0 0.0
2019-Oct-20 15:29N 48°23' W 004°29'0 0.0
2019-Oct-20 14:59N 48°23' W 004°29'0 0.0
2019-Oct-20 14:29N 48°23' W 004°29'0 0.0
2019-Oct-20 13:59N 48°23' W 004°29'0 0.0
2019-Oct-20 13:29N 48°23' W 004°29'0 0.0
2019-Oct-20 12:59N 48°23' W 004°29'0 0.0
2019-Oct-20 12:29N 48°23' W 004°29'0 0.0
2019-Oct-20 11:59N 48°23' W 004°29'0 0.0
2019-Oct-20 11:29N 48°23' W 004°29'0 0.0
2019-Oct-20 10:59N 48°23' W 004°29'0 0.0
2019-Oct-20 10:29N 48°23' W 004°29'0 0.0
2019-Oct-20 09:59N 48°23' W 004°29'0 0.0
2019-Oct-20 09:29N 48°23' W 004°29'0 0.0
2019-Oct-20 08:59N 48°23' W 004°29'0 0.0
2019-Oct-20 08:29N 48°23' W 004°29'0 0.0
2019-Oct-20 07:59N 48°23' W 004°29'0 0.0
2019-Oct-20 07:29N 48°23' W 004°29'0 0.0
2019-Oct-20 07:00N 48°23' W 004°29'0 0.0
2019-Oct-20 06:30N 48°23' W 004°29'0 0.0
2019-Oct-20 06:00N 48°23' W 004°29'0 0.0
2019-Oct-20 05:30N 48°23' W 004°29'1 2.7
2019-Oct-20 05:00N 48°22' W 004°30'3 5.8
2019-Oct-20 04:30N 48°21' W 004°34'4 8.7
2019-Oct-20 04:00N 48°19' W 004°40'5 9.6
2019-Oct-20 03:30N 48°19' W 004°47'4 8.3
2019-Oct-20 03:01N 48°23' W 004°48'4 8.9
2019-Oct-20 02:30N 48°27' W 004°50'4 8.0
2019-Oct-20 02:00N 48°31' W 004°50'4 8.4
2019-Oct-20 01:30N 48°35' W 004°48'4 8.9
2019-Oct-20 01:00N 48°39' W 004°45'5 9.2
2019-Oct-20 00:30N 48°42' W 004°40'5 9.2
2019-Oct-20 00:00N 48°46' W 004°35'5 9.7
2019-Oct-19 23:30N 48°49' W 004°30'5 9.8
2019-Oct-19 23:00N 48°53' W 004°24'7 9.7
2019-Oct-19 22:17N 48°58' W 004°17'5 9.1
2019-Oct-19 21:44N 49°01' W 004°11'3 6.2
2019-Oct-19 21:14N 49°03' W 004°08'24 3.7
2019-Oct-19 14:40N 49°22' W 003°43'6 2.8
2019-Oct-19 12:24N 49°26' W 003°36'4 9.2
2019-Oct-19 12:00N 49°29' W 003°32'510.4
2019-Oct-19 11:30N 49°33' W 003°27'510.0
2019-Oct-19 11:00N 49°36' W 003°21'5 9.7
2019-Oct-19 10:30N 49°40' W 003°17'5 9.0
2019-Oct-19 10:00N 49°44' W 003°13'4 8.5
2019-Oct-19 09:30N 49°47' W 003°08'4 8.5
2019-Oct-19 09:00N 49°50' W 003°04'4 8.4
2019-Oct-19 08:30N 49°53' W 002°60'4 8.5
2019-Oct-19 08:00N 49°56' W 002°55'4 7.9
2019-Oct-19 07:30N 49°58' W 002°50'4 8.8
2019-Oct-19 07:00N 49°59' W 002°43'5 9.0
2019-Oct-19 06:30N 50°01' W 002°37'2610.3
2019-Oct-19 04:00N 50°08' W 001°58'58 6.2
2019-Oct-18 18:39N 50°24' W 000°31'1 8.4
2019-Oct-18 18:29N 50°24' W 000°29'4 8.4
2019-Oct-18 17:58N 50°25' W 000°22'4 8.4
2019-Oct-18 17:30N 50°26' W 000°16'6 8.6
2019-Oct-18 16:46N 50°28' W 000°07'2 7.7
2019-Oct-18 16:28N 50°29' W 000°03'11 7.4
2019-Oct-18 14:56N 50°31' E 000°14'3 7.0
2019-Oct-18 14:28N 50°32' E 000°19'3 6.3
2019-Oct-18 14:00N 50°33' E 000°23'3 5.6
2019-Oct-18 13:30N 50°34' E 000°27'3 5.1
2019-Oct-18 13:00N 50°35' E 000°31'2 4.7
2019-Oct-18 12:30N 50°35' E 000°35'3 4.6
2019-Oct-18 11:57N 50°36' E 000°39'2 4.8
2019-Oct-18 11:30N 50°37' E 000°42'2 4.9
2019-Oct-18 11:00N 50°38' E 000°45'2 4.5
2019-Oct-18 10:30N 50°39' E 000°49'3 5.7
2019-Oct-18 10:00N 50°40' E 000°53'3 6.5
2019-Oct-18 09:30N 50°41' E 000°57'4 7.5
2019-Oct-18 09:00N 50°42' E 001°03'4 7.6
2019-Oct-18 08:25N 50°44' E 001°10'16 0.6
2019-Oct-17 03:58N 50°43' E 001°34'0 0.0
2019-Oct-17 01:55N 50°43' E 001°34'0 0.0
2019-Oct-17 01:28N 50°43' E 001°34'0 0.0
2019-Oct-17 00:58N 50°43' E 001°34'0 0.0
2019-Oct-17 00:28N 50°43' E 001°34'0 0.0
2019-Oct-16 23:49N 50°43' E 001°34'0 0.0
2019-Oct-16 23:16N 50°43' E 001°34'0 0.0
2019-Oct-16 22:49N 50°43' E 001°34'0 0.0
2019-Oct-16 14:48N 50°44' E 001°35'3 5.8
2019-Oct-16 14:21N 50°45' E 001°31'1 0.8
2019-Oct-16 13:32N 50°45' E 001°30'0 3.4
2019-Oct-16 13:30N 50°45' E 001°30'2 4.4
2019-Oct-16 12:58N 50°46' E 001°26'510.0
2019-Oct-16 12:29N 50°47' E 001°19'1 3.0
2019-Oct-16 12:00N 50°47' E 001°17'2 4.4
2019-Oct-16 11:29N 50°49' E 001°18'2 4.4
2019-Oct-16 10:59N 50°51' E 001°20'1 2.8
2019-Oct-16 10:30N 50°52' E 001°21'0 0.2
2019-Oct-16 09:56N 50°52' E 001°21'2 3.6
2019-Oct-16 09:25N 50°50' E 001°20'2 3.8
2019-Oct-16 09:00N 50°52' E 001°21'5 9.6
2019-Oct-16 08:30N 50°56' E 001°23'2 3.4
2019-Oct-16 08:00N 50°58' E 001°24'4 8.4
2019-Oct-16 07:30N 50°58' E 001°31'510.3
2019-Oct-16 07:00N 50°56' E 001°39'1 1.6
2019-Oct-16 06:30N 50°56' E 001°38'2 3.7
2019-Oct-16 06:01N 50°54' E 001°36'0 0.4
2019-Oct-16 05:31N 50°55' E 001°36'0 0.8
2019-Oct-16 05:01N 50°55' E 001°36'0 0.4
2019-Oct-16 04:31N 50°55' E 001°37'0 0.2
2019-Oct-16 04:00N 50°55' E 001°37'0 0.8
2019-Oct-16 03:30N 50°54' E 001°36'3 5.2
2019-Oct-16 03:00N 50°52' E 001°34'3 6.2
2019-Oct-16 02:30N 50°50' E 001°31'3 5.5
2019-Oct-16 01:54N 50°47' E 001°28'3 8.3
2019-Oct-16 01:30N 50°47' E 001°23'7 8.5
2019-Oct-16 00:37N 50°45' E 001°11'1 6.4
2019-Oct-16 00:30N 50°45' E 001°10'3 6.4
2019-Oct-16 00:00N 50°44' E 001°05'3 6.6
2019-Oct-15 23:30N 50°43' E 001°00'3 6.6
2019-Oct-15 23:00N 50°42' E 000°55'3 6.0
2019-Oct-15 22:30N 50°44' E 000°52'4 7.8
2019-Oct-15 22:01N 50°47' E 000°49'2 5.0
2019-Oct-15 21:30N 50°49' E 000°46'0 0.2
2019-Oct-15 21:01N 50°49' E 000°46'1 1.1
2019-Oct-15 20:31N 50°49' E 000°47'2 3.3
2019-Oct-15 20:00N 50°48' E 000°45'1 3.0
2019-Oct-15 19:30N 50°49' E 000°47'0 0.4
2019-Oct-15 19:01N 50°49' E 000°47'1 2.3
2019-Oct-15 18:30N 50°48' E 000°45'2 4.1
2019-Oct-15 18:00N 50°50' E 000°48'0 0.9
2019-Oct-15 17:30N 50°50' E 000°48'1 1.8
2019-Oct-15 17:00N 50°50' E 000°49'2 3.5
2019-Oct-15 16:30N 50°51' E 000°52'2 3.1
2019-Oct-15 16:01N 50°52' E 000°54'4 7.0
2019-Oct-15 15:31N 50°54' E 000°59'4 8.8
2019-Oct-15 15:01N 50°57' E 001°03'3 6.8
2019-Oct-15 14:31N 50°60' E 001°06'0 0.9
2019-Oct-15 14:01N 50°60' E 001°06'2 3.4
2019-Oct-15 13:30N 51°01' E 001°07'2 3.9
2019-Oct-15 13:01N 50°59' E 001°06'4 8.0
2019-Oct-15 12:30N 50°56' E 001°02'4 8.9
2019-Oct-15 12:01N 50°53' E 000°58'4 8.2
2019-Oct-15 11:30N 50°49' E 000°54'3 5.6
2019-Oct-15 11:00N 50°47' E 000°51'2 3.2
2019-Oct-15 10:31N 50°48' E 000°53'1 1.9
2019-Oct-15 10:00N 50°48' E 000°52'1 2.7
2019-Oct-15 09:30N 50°49' E 000°50'2 3.3
2019-Oct-15 09:00N 50°50' E 000°48'2 3.5
2019-Oct-15 08:31N 50°49' E 000°46'0 0.3
2019-Oct-15 08:01N 50°49' E 000°46'4 7.3
2019-Oct-15 07:30N 50°48' E 000°41'3 6.8
2019-Oct-15 07:00N 50°48' E 000°35'1 1.5
2019-Oct-15 06:30N 50°48' E 000°34'2 4.6
2019-Oct-15 06:00N 50°47' E 000°31'0 0.6
2019-Oct-15 05:28N 50°47' E 000°31'0 0.7
2019-Oct-15 05:00N 50°48' E 000°31'0 0.7
2019-Oct-15 04:29N 50°47' E 000°32'0 0.2
2019-Oct-15 04:00N 50°47' E 000°32'3 7.0
2019-Oct-15 03:30N 50°47' E 000°37'510.0
2019-Oct-15 03:00N 50°46' E 000°45'5 9.7
2019-Oct-15 02:30N 50°44' E 000°52'5 9.8
2019-Oct-15 01:59N 50°41' E 000°58'5 8.4
2019-Oct-15 01:20N 50°42' E 001°07'17 4.7
2019-Oct-14 21:45N 50°36' E 001°31'1 0.8
2019-Oct-14 20:08N 50°35' E 001°31'2 3.6
2019-Oct-14 19:32N 50°37' E 001°32'0 0.8
2019-Oct-14 19:28N 50°37' E 001°32'4 3.9
2019-Oct-14 18:31N 50°40' E 001°30'4 2.4
2019-Oct-14 16:48N 50°37' E 001°28'1 2.7
2019-Oct-14 16:26N 50°36' E 001°27'1 3.2
2019-Oct-14 16:00N 50°35' E 001°26'910.2
2019-Oct-14 15:05N 50°44' E 001°30'1 9.6
2019-Oct-14 15:00N 50°44' E 001°31'2 4.1
2019-Oct-14 14:30N 50°46' E 001°33'2 3.5
2019-Oct-14 14:00N 50°47' E 001°34'0 0.2
2019-Oct-14 13:29N 50°47' E 001°34'611.9
2019-Oct-14 12:59N 50°42' E 001°33'14 2.3
2019-Oct-14 06:57N 50°28' E 001°26'1 2.1
2019-Oct-14 06:29N 50°28' E 001°26'1 1.1
2019-Oct-14 05:59N 50°27' E 001°26'0 0.9
2019-Oct-14 05:30N 50°27' E 001°26'1 0.8
2019-Oct-14 04:43N 50°28' E 001°26'0 1.1
2019-Oct-14 04:28N 50°28' E 001°26'0 0.9
2019-Oct-14 03:58N 50°29' E 001°26'0 0.5
2019-Oct-14 03:30N 50°29' E 001°26'0 0.3
2019-Oct-14 03:00N 50°29' E 001°27'0 0.1
2019-Oct-14 02:30N 50°29' E 001°27'0 0.3
2019-Oct-14 01:40N 50°29' E 001°27'0 0.4
2019-Oct-14 01:29N 50°29' E 001°26'0 0.7
2019-Oct-14 00:59N 50°28' E 001°26'1 1.0
2019-Oct-14 00:27N 50°28' E 001°26'1 1.2
2019-Oct-13 23:59N 50°28' E 001°25'1 1.5
2019-Oct-13 23:28N 50°27' E 001°24'2 3.4
2019-Oct-13 22:59N 50°26' E 001°22'1 1.5
2019-Oct-13 22:18N 50°25' E 001°21'0 0.6
2019-Oct-13 21:35N 50°26' E 001°21'1 5.9
2019-Oct-13 21:29N 50°26' E 001°22'1 2.0
2019-Oct-13 21:00N 50°25' E 001°21'0 0.4
2019-Oct-13 20:22N 50°25' E 001°21'0 0.2
2019-Oct-13 19:43N 50°25' E 001°21'1 5.7
2019-Oct-13 19:30N 50°26' E 001°22'1 2.4
2019-Oct-13 18:59N 50°25' E 001°20'2 0.7
2019-Oct-13 16:30N 50°27' E 001°23'22 2.4
2019-Oct-13 07:26N 50°05' E 001°16'  

Dump ship's entire track history